Delta, CO

10:02 PM MDT on September 20, 2017 (GMT -0600)
Delta

Weather History for KAJZ - February, 2014

Change the Weather History Date:

Friday, February 21, 2014

  Actual Average (KMTJ) Record (KMTJ)
Temperature  
Mean Temperature 39 °F -  
Max Temperature 54 °F 43 °F 60 °F (2017)
Min Temperature 24 °F 23 °F 18 °F (2009)
Degree Days  
Heating Degree Days 26    
Moisture  
Dew Point 13 °F    
Average Humidity 36    
Maximum Humidity 69    
Minimum Humidity 15    
Precipitation  
Precipitation 0.00 in - - ()
Sea Level Pressure  
Sea Level Pressure 30.03 in    
Wind  
Wind Speed 6 mph (NNE)    
Max Wind Speed 15 mph    
Max Gust Speed 22 mph    
Visibility 10 miles    
Events      
Averages and records for this station are not official NWS values.
T = Trace of Precipitation, MM = Missing Value Source: NWS Daily Summary

Daily Weather History Graph

Daily Weather History Graph

Search for Another Location

Airport or City:

Trip Planner

Search our weather history database for the weather conditions in past years. The results will help you decide how hot, cold, wet, or windy it might be!

Date:

Astronomy

Feb. 21, 2014 Rise Set
Actual Time 6:55 AM MST 5:56 PM MST
Civil Twilight 6:28 AM MST 6:23 PM MST
Nautical Twilight 5:57 AM MST 6:54 PM MST
Astronomical Twilight 5:26 AM MST 7:25 PM MST
Moon No Moon Rise 10:26 AM MST
Length of Visible Light 11h 55m
Length of Day
11h 01m
Waning Gibbous, 60% of the Moon is Illuminated
Feb 21
Waning Gibbous
Feb 22
Last Quarter
Mar 1
New
Mar 8
First Quarter
Mar 16
Full

Hourly Weather History & Observations

Time (MST) Temp. Windchill Dew Point Humidity Pressure Visibility Wind Dir Wind Speed Gust Speed Precip Events Conditions
12:15 AM 27.5 °F 20.2 °F 12.6 °F 54% 30.14 in 10.0 mi NE 6.9 mph - N/A   Clear
12:35 AM 28.4 °F 20.4 °F 12.6 °F 52% 30.13 in 10.0 mi ENE 8.1 mph - N/A   Clear
12:55 AM 28.4 °F 20.4 °F 12.2 °F 51% 30.12 in 10.0 mi NE 8.1 mph - N/A   Scattered Clouds
3:15 AM 29.1 °F 22.1 °F 13.5 °F 52% 30.10 in 10.0 mi ENE 6.9 mph - N/A   Overcast
3:55 AM 29.3 °F 22.3 °F 13.1 °F 51% 30.11 in 10.0 mi ENE 6.9 mph - N/A   Overcast
4:15 AM 29.8 °F 23.0 °F 13.1 °F 50% 30.11 in 10.0 mi East 6.9 mph - N/A   Overcast
4:35 AM 29.8 °F 23.0 °F 12.9 °F 49% 30.11 in 10.0 mi ENE 6.9 mph - N/A   Overcast
4:55 AM 29.5 °F 22.5 °F 13.3 °F 51% 30.11 in 10.0 mi ENE 6.9 mph - N/A   Overcast
5:15 AM 29.5 °F 22.5 °F 14.0 °F 53% 30.10 in 10.0 mi NE 6.9 mph - N/A   Scattered Clouds
5:55 AM 28.2 °F 22.0 °F 13.1 °F 53% 30.10 in 10.0 mi NE 5.8 mph - N/A   Clear
6:15 AM 25.7 °F 21.5 °F 13.8 °F 61% 30.10 in 10.0 mi NE 3.5 mph - N/A   Clear
6:35 AM 25.3 °F 18.5 °F 14.2 °F 63% 30.11 in 10.0 mi East 5.8 mph - N/A   Clear
6:55 AM 24.4 °F 18.6 °F 15.4 °F 69% 30.11 in 10.0 mi North 4.6 mph - N/A   Clear
7:15 AM 25.7 °F 20.1 °F 16.0 °F 67% 30.11 in 10.0 mi North 4.6 mph - N/A   Clear
7:55 AM 28.8 °F - 16.7 °F 61% 30.11 in 10.0 mi Calm Calm - N/A   Clear
8:15 AM 30.9 °F 27.5 °F 15.4 °F 53% 30.13 in 10.0 mi East 3.5 mph - N/A   Clear
8:35 AM 33.1 °F 28.7 °F 14.5 °F 47% 30.13 in 10.0 mi East 4.6 mph - N/A   Clear
8:55 AM 34.3 °F 29.2 °F 14.7 °F 45% 30.13 in 10.0 mi East 5.8 mph - N/A   Clear
9:15 AM 36.0 °F 32.1 °F 15.8 °F 44% 30.13 in 10.0 mi East 4.6 mph - N/A   Clear
9:35 AM 37.4 °F 33.8 °F 16.3 °F 42% 30.12 in 10.0 mi East 4.6 mph - N/A   Clear
9:55 AM 39.7 °F 36.5 °F 18.0 °F 42% 30.11 in 10.0 mi ESE 4.6 mph - N/A   Clear
10:15 AM 41.2 °F 38.2 °F 18.1 °F 40% 30.11 in 10.0 mi ENE 4.6 mph - N/A   Clear
10:35 AM 41.4 °F - 17.8 °F 39% 30.11 in 10.0 mi Calm Calm - N/A   Clear
10:55 AM 42.8 °F - 16.5 °F 35% 30.10 in 10.0 mi Calm Calm - N/A   Clear
11:15 AM 43.5 °F - 15.6 °F 33% 30.09 in 10.0 mi Calm Calm - N/A   Clear
11:35 AM 45.0 °F 43.5 °F 15.4 °F 31% 30.08 in 10.0 mi SE 3.5 mph - N/A   Clear
11:55 AM 46.2 °F - 12.9 °F 26% 30.07 in 10.0 mi Calm Calm - N/A   Clear
12:15 PM 46.4 °F - 12.6 °F 26% 30.05 in 10.0 mi Calm Calm - N/A   Clear
12:35 PM 47.8 °F - 12.7 °F 24% 30.04 in 10.0 mi Calm Calm - N/A   Clear
12:55 PM 48.2 °F - 13.1 °F 24% 30.03 in 10.0 mi SW 4.6 mph - N/A   Clear
1:15 PM 48.9 °F - 13.3 °F 24% 30.02 in 10.0 mi East 4.6 mph - N/A   Clear
1:35 PM 50.0 °F - 12.4 °F 22% 30.00 in 10.0 mi Calm Calm - N/A   Clear
1:55 PM 52.0 °F - 12.6 °F 21% 30.00 in 10.0 mi West 6.9 mph - N/A   Clear
2:15 PM 52.5 °F - 11.3 °F 19% 29.99 in 10.0 mi West 10.4 mph 16.1 mph N/A   Clear
2:35 PM 53.2 °F - 10.0 °F 18% 29.98 in 10.0 mi West 8.1 mph 16.1 mph N/A   Clear
2:55 PM 53.6 °F - 9.5 °F 17% 29.98 in 10.0 mi WNW 15.0 mph 20.7 mph N/A   Clear
3:15 PM 54.1 °F - 8.6 °F 16% 29.98 in 10.0 mi West 13.8 mph 19.6 mph N/A   Clear
3:35 PM 53.8 °F - 8.4 °F 16% 29.98 in 10.0 mi West 12.7 mph - N/A   Clear
3:55 PM 54.0 °F - 7.0 °F 15% 29.97 in 10.0 mi West 12.7 mph 17.3 mph N/A   Clear
4:15 PM 53.2 °F - 7.0 °F 16% 29.97 in 10.0 mi West 10.4 mph 21.9 mph N/A   Clear
4:35 PM 52.9 °F - 7.9 °F 16% 29.96 in 10.0 mi West 10.4 mph 19.6 mph N/A   Clear
4:55 PM 52.7 °F - 7.5 °F 16% 29.96 in 10.0 mi West 12.7 mph - N/A   Clear
5:15 PM 51.8 °F - 8.1 °F 17% 29.95 in 10.0 mi West 13.8 mph - N/A   Clear
5:35 PM 50.4 °F - 7.7 °F 18% 29.95 in 10.0 mi WSW 15.0 mph - N/A   Clear
5:55 PM 48.9 °F - 9.5 °F 20% 29.96 in 10.0 mi West 11.5 mph - N/A   Clear
6:15 PM 48.2 °F - 8.6 °F 20% 29.96 in 10.0 mi West 10.4 mph - N/A   Clear
6:35 PM 46.4 °F 42.4 °F 9.1 °F 22% 29.96 in 10.0 mi West 8.1 mph - N/A   Clear
6:55 PM 45.7 °F 41.5 °F 7.5 °F 21% 29.96 in 10.0 mi West 8.1 mph - N/A   Clear
7:15 PM 45.7 °F 42.0 °F 9.0 °F 22% 29.96 in 10.0 mi WNW 6.9 mph - N/A   Clear
7:35 PM 43.5 °F - 10.0 °F 26% 29.96 in 10.0 mi Calm Calm - N/A   Clear
7:55 PM 43.7 °F - 9.0 °F 24% 29.96 in 10.0 mi Calm Calm - N/A   Clear
8:15 PM 39.0 °F 36.8 °F 10.9 °F 32% 29.96 in 10.0 mi SSE 3.5 mph - N/A   Clear
8:35 PM 37.2 °F - 11.3 °F 34% 29.96 in 10.0 mi Calm Calm - N/A   Clear
8:55 PM 37.8 °F - 11.8 °F 34% 29.97 in 10.0 mi Calm Calm - N/A   Clear
9:15 PM 37.4 °F - 12.0 °F 35% 29.97 in 10.0 mi Calm Calm - N/A   Clear
9:35 PM 38.7 °F - 11.3 °F 33% 29.97 in 10.0 mi Calm Calm - N/A   Clear
9:55 PM 36.0 °F 33.3 °F 12.4 °F 38% 29.97 in 10.0 mi ESE 3.5 mph - N/A   Clear
10:15 PM 32.4 °F - 14.0 °F 47% 29.97 in 10.0 mi Calm Calm - N/A   Clear
10:35 PM 34.2 °F - 13.8 °F 43% 29.97 in 10.0 mi Calm Calm - N/A   Clear
10:55 PM 36.5 °F 33.9 °F 12.4 °F 37% 29.97 in 10.0 mi East 3.5 mph - N/A   Clear
11:15 PM 33.4 °F 29.1 °F 14.7 °F 46% 29.97 in 10.0 mi ENE 4.6 mph - N/A   Clear
11:35 PM 34.3 °F - 17.4 °F 50% 29.97 in 10.0 mi Calm Calm - N/A   Clear
11:55 PM 34.2 °F 31.2 °F 18.0 °F 52% 29.96 in 10.0 mi NNW 3.5 mph - N/A   Clear